createdAt,value
2023-02-07T00:01:55.111Z,25.95
2023-02-07T00:04:25.065Z,26.60
2023-02-07T00:06:54.820Z,25.65
2023-02-07T00:09:24.495Z,26.50
2023-02-07T00:11:58.266Z,27.98
2023-02-07T00:14:28.126Z,28.95
2023-02-07T00:16:59.543Z,26.17
2023-02-07T00:19:29.272Z,27.90
2023-02-07T00:22:01.926Z,33.30
2023-02-07T00:24:31.653Z,29.85
2023-02-07T00:27:01.512Z,31.85
2023-02-07T00:29:33.223Z,29.75
2023-02-07T00:32:04.701Z,31.15
2023-02-07T00:34:36.721Z,31.30
2023-02-07T00:37:08.694Z,32.15
2023-02-07T00:39:39.848Z,30.75
2023-02-07T00:42:10.038Z,33.67
2023-02-07T00:44:39.843Z,34.47
2023-02-07T00:47:10.930Z,35.15
2023-02-07T00:49:41.253Z,34.45
2023-02-07T00:52:11.093Z,34.17
2023-02-07T00:54:41.103Z,34.60
2023-02-07T00:57:10.908Z,34.25
2023-02-07T00:59:40.424Z,36.33
2023-02-07T01:02:11.365Z,31.67
2023-02-07T01:04:41.193Z,33.58
2023-02-07T01:07:11.324Z,36.20
2023-02-07T01:09:41.077Z,32.30
2023-02-07T01:12:10.825Z,34.53
2023-02-07T01:14:41.332Z,33.42
2023-02-07T01:17:12.300Z,34.83
2023-02-07T01:19:41.879Z,35.28
2023-02-07T01:22:12.052Z,36.78
2023-02-07T01:24:41.896Z,35.13
2023-02-07T01:27:12.970Z,30.80
2023-02-07T01:29:42.896Z,33.50
2023-02-07T01:32:13.855Z,32.83
2023-02-07T01:34:44.735Z,29.90
2023-02-07T01:37:14.642Z,32.05
2023-02-07T01:39:44.502Z,33.15
2023-02-07T01:42:16.800Z,33.42
2023-02-07T01:45:06.917Z,33.80
2023-02-07T01:47:39.365Z,32.28
2023-02-07T01:50:10.457Z,34.35
2023-02-07T01:52:43.060Z,30.90
2023-02-07T01:55:16.835Z,28.00
2023-02-07T01:57:47.468Z,32.55
2023-02-07T02:00:19.900Z,30.65
2023-02-07T02:02:51.184Z,31.23
2023-02-07T02:05:23.382Z,36.00
2023-02-07T02:07:53.101Z,34.35
2023-02-07T02:10:25.556Z,32.65
2023-02-07T02:13:18.597Z,32.53
2023-02-07T02:15:56.958Z,33.35
2023-02-07T02:18:44.345Z,33.72
2023-02-07T02:21:41.574Z,33.03
2023-02-07T02:24:51.136Z,34.00
2023-02-07T02:27:33.859Z,30.08
2023-02-07T02:30:36.224Z,31.77
2023-02-07T02:33:19.283Z,31.30
2023-02-07T02:35:59.300Z,33.83
2023-02-07T02:38:34.337Z,32.70
2023-02-07T02:41:12.236Z,31.58
2023-02-07T03:00:59.028Z,32.53
2023-02-07T03:03:51.034Z,31.45
2023-02-07T03:06:33.023Z,32.10
2023-02-07T03:09:12.340Z,33.47
2023-02-07T03:11:50.690Z,27.95
2023-02-07T03:14:25.478Z,32.30
2023-02-07T03:17:05.845Z,33.25
2023-02-07T03:19:40.478Z,31.20
2023-02-07T03:22:13.765Z,30.45
2023-02-07T03:24:50.506Z,30.23
2023-02-07T03:27:24.128Z,30.88
2023-02-07T03:29:59.334Z,32.83
2023-02-07T03:32:35.359Z,30.02
2023-02-07T03:35:11.073Z,34.17
2023-02-07T03:37:44.166Z,34.67
2023-02-07T03:40:14.668Z,33.65
2023-02-07T03:42:48.931Z,31.50
2023-02-07T03:45:21.515Z,30.25
2023-02-07T03:47:52.567Z,31.70
2023-02-07T03:50:22.263Z,32.50
2023-02-07T03:52:52.142Z,31.13
2023-02-07T03:55:21.932Z,31.13
2023-02-07T03:57:51.720Z,34.03
2023-02-07T04:00:21.712Z,34.50
2023-02-07T04:02:52.753Z,32.97
2023-02-07T04:05:22.350Z,32.40
2023-02-07T04:07:51.918Z,31.30
2023-02-07T04:10:21.657Z,33.35
2023-02-07T04:12:51.400Z,31.38
2023-02-07T04:15:21.255Z,35.10
2023-02-07T04:17:52.556Z,33.42
2023-02-07T04:20:22.256Z,29.52
2023-02-07T04:22:51.969Z,33.85
2023-02-07T04:25:21.781Z,34.30
2023-02-07T04:27:54.193Z,31.48
2023-02-07T04:30:24.043Z,27.13
2023-02-07T04:32:55.562Z,28.52
2023-02-07T04:35:25.839Z,30.85
2023-02-07T04:37:55.615Z,29.95
2023-02-07T04:40:25.202Z,33.22
2023-02-07T04:42:54.792Z,34.00
2023-02-07T04:45:24.597Z,31.65
2023-02-07T04:47:55.876Z,32.50
2023-02-07T04:50:25.559Z,31.13
2023-02-07T04:52:55.231Z,33.20
2023-02-07T04:55:24.956Z,32.40
2023-02-07T04:57:54.417Z,30.95
2023-02-07T05:00:24.013Z,31.40
2023-02-07T05:02:55.269Z,29.85
2023-02-07T05:05:24.940Z,32.17
2023-02-07T05:07:54.738Z,31.58
2023-02-07T05:10:24.251Z,31.30
2023-02-07T05:12:53.853Z,35.75
2023-02-07T05:15:23.877Z,32.15
2023-02-07T05:17:54.884Z,34.17
2023-02-07T05:20:24.688Z,34.40
2023-02-07T05:22:54.491Z,31.33
2023-02-07T05:25:24.266Z,33.08
2023-02-07T05:27:57.031Z,32.58
2023-02-07T05:30:26.908Z,35.83
2023-02-07T05:33:05.919Z,36.05
2023-02-07T05:35:37.560Z,30.33
2023-02-07T05:38:09.190Z,35.63
2023-02-07T05:40:39.813Z,34.45
2023-02-07T05:43:10.193Z,34.00
2023-02-07T05:45:40.221Z,34.80
2023-02-07T05:48:11.504Z,34.67
2023-02-07T05:50:41.759Z,37.60
2023-02-07T05:53:13.149Z,33.80
2023-02-07T05:55:43.941Z,37.60
2023-02-07T05:58:13.933Z,39.42
2023-02-07T06:00:43.684Z,34.80
2023-02-07T06:03:14.825Z,31.83
2023-02-07T06:05:44.496Z,28.40
2023-02-07T06:08:14.336Z,30.42
2023-02-07T06:10:43.888Z,30.35
2023-02-07T06:13:13.648Z,30.83
2023-02-07T06:15:43.427Z,28.50
2023-02-07T06:18:15.068Z,26.15
2023-02-07T06:20:44.965Z,29.25
2023-02-07T06:23:14.655Z,28.73
2023-02-07T06:25:44.302Z,29.33
2023-02-07T06:28:14.000Z,31.55
2023-02-07T06:30:43.784Z,29.95
2023-02-07T06:33:15.167Z,32.35
2023-02-07T06:35:47.723Z,28.45
2023-02-07T06:38:17.841Z,29.73
2023-02-07T06:40:48.048Z,28.23
2023-02-07T06:43:17.795Z,29.42
2023-02-07T06:45:47.610Z,35.38
2023-02-07T06:48:18.999Z,31.40
2023-02-07T06:50:51.223Z,30.15
2023-02-07T06:53:20.927Z,28.58
2023-02-07T06:55:51.624Z,28.55
2023-02-07T06:58:21.456Z,26.92
2023-02-07T07:00:51.386Z,28.33
2023-02-07T07:03:27.164Z,28.45
2023-02-07T07:05:56.924Z,28.08
2023-02-07T07:08:27.072Z,29.88
2023-02-07T07:10:57.730Z,29.05
2023-02-07T07:13:27.547Z,29.98
2023-02-07T07:15:57.169Z,28.77
2023-02-07T07:18:32.715Z,29.35
2023-02-07T07:21:02.279Z,27.75
2023-02-07T07:23:31.968Z,25.80
2023-02-07T07:26:01.851Z,29.77
2023-02-07T07:28:32.016Z,28.73
2023-02-07T07:31:07.725Z,25.63
2023-02-07T07:33:40.754Z,27.15
2023-02-07T07:36:10.759Z,26.08
2023-02-07T07:38:43.077Z,28.50
2023-02-07T07:41:14.297Z,31.75
2023-02-07T07:43:44.204Z,26.65
2023-02-07T07:46:14.012Z,28.80
2023-02-07T07:48:45.441Z,26.88
2023-02-07T07:51:15.114Z,26.80
2023-02-07T07:53:44.965Z,23.85
2023-02-07T07:56:14.883Z,27.73
2023-02-07T07:58:44.944Z,25.88
2023-02-07T08:01:16.751Z,28.00
2023-02-07T08:03:47.913Z,28.60
2023-02-07T08:06:18.354Z,29.80
2023-02-07T08:08:48.186Z,25.83
2023-02-07T08:11:18.241Z,30.25
2023-02-07T08:13:48.026Z,27.35
2023-02-07T08:16:18.741Z,25.80
2023-02-07T08:18:50.406Z,27.25
2023-02-07T08:21:20.083Z,23.42
2023-02-07T08:23:50.174Z,27.63
2023-02-07T08:26:19.696Z,25.45
2023-02-07T08:28:49.969Z,24.88
2023-02-07T08:31:20.319Z,26.80
2023-02-07T08:33:52.123Z,25.98
2023-02-07T08:36:21.740Z,25.30
2023-02-07T08:38:52.281Z,25.33
2023-02-07T08:41:21.984Z,24.55
2023-02-07T08:43:52.196Z,23.52
2023-02-07T08:46:21.778Z,25.58
2023-02-07T08:48:53.070Z,25.15
2023-02-07T08:51:25.134Z,23.50
2023-02-07T08:53:56.045Z,22.27
2023-02-07T08:56:26.421Z,21.77
2023-02-07T08:58:56.523Z,22.08
2023-02-07T09:01:28.891Z,20.83
2023-02-07T09:04:00.035Z,20.17
2023-02-07T09:06:29.698Z,18.95
2023-02-07T09:08:59.597Z,20.52
2023-02-07T09:11:29.315Z,19.52
2023-02-07T09:13:59.015Z,18.80
2023-02-07T09:16:28.714Z,20.45
2023-02-07T09:19:01.106Z,20.05
2023-02-07T09:21:31.824Z,16.52
2023-02-07T09:24:01.445Z,17.30
2023-02-07T09:26:33.412Z,17.63
2023-02-07T09:29:04.123Z,16.08
2023-02-07T09:31:35.145Z,17.10
2023-02-07T09:34:06.383Z,19.20
2023-02-07T09:36:35.985Z,23.77
2023-02-07T09:39:06.875Z,18.15
2023-02-07T09:41:46.377Z,17.70
2023-02-07T09:44:18.951Z,20.45
2023-02-07T09:46:54.300Z,21.20
2023-02-07T09:49:34.383Z,22.17
2023-02-07T09:52:13.111Z,22.10
2023-02-07T09:54:45.745Z,21.80
2023-02-07T09:57:19.614Z,20.23
2023-02-07T09:59:55.715Z,19.83
2023-02-07T10:02:31.716Z,20.38
2023-02-07T10:05:06.621Z,21.55
2023-02-07T10:07:36.350Z,20.48
2023-02-07T10:10:15.197Z,19.33
2023-02-07T10:13:06.982Z,24.38
2023-02-07T10:15:58.613Z,21.45
2023-02-07T10:18:41.972Z,18.48
2023-02-07T10:21:22.725Z,19.83
2023-02-07T10:24:32.093Z,19.40
2023-02-07T10:27:10.941Z,19.35
2023-02-07T10:29:52.345Z,19.15
2023-02-07T10:32:25.276Z,18.13
2023-02-07T10:35:02.260Z,19.80
2023-02-07T10:37:39.812Z,20.77
2023-02-07T10:40:17.442Z,19.83
2023-02-07T10:42:51.999Z,19.40
2023-02-07T10:45:21.698Z,20.75
2023-02-07T10:47:51.538Z,18.70
2023-02-07T10:50:29.971Z,19.20
2023-02-07T10:53:01.802Z,20.75
2023-02-07T10:55:43.320Z,19.52
2023-02-07T10:58:23.185Z,20.98
2023-02-07T11:00:54.567Z,18.02
2023-02-07T11:03:25.539Z,19.45
2023-02-07T11:05:59.630Z,22.20
2023-02-07T11:08:33.060Z,21.08
2023-02-07T11:11:19.078Z,20.40
2023-02-07T11:13:52.376Z,18.17
2023-02-07T11:16:24.762Z,19.90
2023-02-07T11:18:59.714Z,20.40
2023-02-07T11:21:35.827Z,20.30
2023-02-07T11:24:10.200Z,20.60
2023-02-07T11:26:52.584Z,18.38
2023-02-07T11:29:24.185Z,18.45
2023-02-07T11:31:56.722Z,18.17
2023-02-07T11:34:39.213Z,17.45
2023-02-07T11:37:21.436Z,17.55
2023-02-07T11:39:54.822Z,19.52
2023-02-07T11:42:27.533Z,18.50
2023-02-07T11:44:57.283Z,17.67
2023-02-07T11:47:29.472Z,19.42
2023-02-07T11:50:02.424Z,19.95
2023-02-07T11:52:35.934Z,20.30
2023-02-07T11:55:14.260Z,19.63
2023-02-07T11:57:47.324Z,18.90
2023-02-07T12:00:24.671Z,20.92
2023-02-07T12:03:02.312Z,18.50
2023-02-07T12:05:35.972Z,19.23
2023-02-07T12:08:11.949Z,19.40
2023-02-07T12:10:45.963Z,18.25
2023-02-07T12:13:21.108Z,18.90
2023-02-07T12:15:54.329Z,16.52
2023-02-07T12:18:30.430Z,20.92
2023-02-07T12:21:07.814Z,18.75
2023-02-07T12:23:45.771Z,19.00
2023-02-07T12:26:25.176Z,18.67
2023-02-07T12:29:27.571Z,16.08
2023-02-07T12:32:06.681Z,20.90
2023-02-07T12:34:43.422Z,17.20
2023-02-07T12:37:23.372Z,17.45
2023-02-07T12:40:04.270Z,18.33
2023-02-07T12:42:41.794Z,16.10
2023-02-07T12:45:17.871Z,17.30
2023-02-07T12:47:58.108Z,16.95
2023-02-07T12:50:43.475Z,17.10
2023-02-07T12:53:29.925Z,15.70
2023-02-07T12:56:10.216Z,17.35
2023-02-07T12:58:51.609Z,15.60
2023-02-07T13:01:26.374Z,15.23
2023-02-07T13:04:27.353Z,17.35
2023-02-07T13:07:13.964Z,15.73
2023-02-07T13:09:50.163Z,15.48
2023-02-07T13:12:25.591Z,15.98
2023-02-07T13:15:10.356Z,16.90
2023-02-07T13:17:47.581Z,15.35
2023-02-07T13:20:28.688Z,14.90
2023-02-07T13:23:01.977Z,14.73
2023-02-07T13:25:36.274Z,15.27
2023-02-07T13:28:09.925Z,18.95
2023-02-07T13:30:41.979Z,16.23
2023-02-07T13:33:27.853Z,13.40
2023-02-07T13:36:02.251Z,16.15
2023-02-07T13:38:47.877Z,11.32
2023-02-07T13:41:25.097Z,14.02
2023-02-07T13:44:09.688Z,18.98
2023-02-07T13:47:03.200Z,14.98
2023-02-07T13:49:44.850Z,14.13
2023-02-07T13:52:22.349Z,17.60
2023-02-07T13:55:03.751Z,22.55
2023-02-07T13:58:01.655Z,20.00
2023-02-07T14:00:33.172Z,14.48
2023-02-07T14:03:06.784Z,12.52
2023-02-07T14:05:44.600Z,12.77
2023-02-07T14:08:25.963Z,12.05
2023-02-07T14:11:01.508Z,15.00
2023-02-07T14:13:36.584Z,13.52
2023-02-07T14:16:10.423Z,30.00
2023-02-07T14:18:47.702Z,13.20
2023-02-07T14:21:43.229Z,13.85
2023-02-07T14:24:31.955Z,15.13
2023-02-07T14:27:19.682Z,13.00
2023-02-07T14:30:23.040Z,12.48
2023-02-07T14:33:15.410Z,12.75
2023-02-07T14:36:19.187Z,14.77
2023-02-07T14:39:05.179Z,14.75
2023-02-07T14:41:39.028Z,14.88
2023-02-07T14:44:11.018Z,12.32
2023-02-07T14:46:43.305Z,12.38
2023-02-07T14:49:20.131Z,11.70
2023-02-07T14:51:53.889Z,11.05
2023-02-07T14:54:31.031Z,13.48
2023-02-07T14:57:09.990Z,11.50
2023-02-07T14:59:45.979Z,12.43
2023-02-07T15:02:33.105Z,12.05
2023-02-07T15:05:19.695Z,12.07
2023-02-07T15:07:56.834Z,11.50
2023-02-07T15:10:55.359Z,11.20
2023-02-07T15:13:29.437Z,12.85
2023-02-07T15:16:02.238Z,13.88
2023-02-07T15:18:34.909Z,12.18
2023-02-07T15:21:04.654Z,11.63
2023-02-07T15:23:36.149Z,10.13
2023-02-07T15:26:08.994Z,11.15
2023-02-07T15:28:38.803Z,11.60
2023-02-07T15:31:13.784Z,11.82
2023-02-07T15:33:50.779Z,12.27
2023-02-07T15:36:33.065Z,14.20
2023-02-07T15:39:06.013Z,12.38
2023-02-07T15:41:39.530Z,15.35
2023-02-07T15:44:19.660Z,12.00
2023-02-07T15:46:51.730Z,14.23
2023-02-07T15:49:33.539Z,14.43
2023-02-07T15:52:09.983Z,13.38
2023-02-07T15:54:47.272Z,11.65
2023-02-07T15:57:28.777Z,11.45
2023-02-07T16:00:03.121Z,12.10
2023-02-07T16:02:47.564Z,14.90
2023-02-07T16:05:24.147Z,16.05
2023-02-07T16:07:54.551Z,14.98
2023-02-07T16:10:38.495Z,15.98
2023-02-07T16:13:19.873Z,14.85
2023-02-07T16:15:57.786Z,13.55
2023-02-07T16:18:39.402Z,14.65
2023-02-07T16:21:14.296Z,14.85
2023-02-07T16:23:45.121Z,15.02
2023-02-07T16:26:18.786Z,13.88
2023-02-07T16:28:49.269Z,14.52
2023-02-07T16:31:18.875Z,15.63
2023-02-07T16:33:49.032Z,12.65
2023-02-07T16:36:20.003Z,13.30
2023-02-07T16:38:49.695Z,14.95
2023-02-07T16:41:31.753Z,15.40
2023-02-07T16:44:02.668Z,15.02
2023-02-07T16:46:33.099Z,16.23
2023-02-07T16:49:15.780Z,15.25
2023-02-07T16:51:46.221Z,14.95
2023-02-07T16:54:16.028Z,12.30
2023-02-07T16:56:48.248Z,14.38
2023-02-07T16:59:19.641Z,14.52
2023-02-07T17:01:50.731Z,16.20
2023-02-07T17:04:21.192Z,12.88
2023-02-07T17:06:51.143Z,16.17
2023-02-07T17:09:22.775Z,16.00
2023-02-07T17:11:55.496Z,18.55
2023-02-07T17:14:25.196Z,19.58
2023-02-07T17:16:54.839Z,21.45
2023-02-07T17:19:27.990Z,20.02
2023-02-07T17:21:57.805Z,18.70
2023-02-07T17:24:27.620Z,17.33
2023-02-07T17:26:59.240Z,15.80
2023-02-07T17:29:30.181Z,14.77
2023-02-07T17:31:59.711Z,15.00
2023-02-07T17:34:29.169Z,14.45
2023-02-07T17:37:02.377Z,15.20
2023-02-07T17:39:32.057Z,14.15
2023-02-07T17:42:07.471Z,14.32
2023-02-07T17:44:36.900Z,16.30
2023-02-07T17:47:06.486Z,12.93
2023-02-07T17:49:35.864Z,15.32
2023-02-07T17:52:08.288Z,14.95
2023-02-07T17:54:38.002Z,13.75
2023-02-07T17:57:08.989Z,13.85
2023-02-07T17:59:38.613Z,13.32
2023-02-07T18:02:08.043Z,14.02
2023-02-07T18:04:37.489Z,14.88
2023-02-07T18:07:06.980Z,14.63
2023-02-07T18:09:36.431Z,15.18
2023-02-07T18:12:07.473Z,16.65
2023-02-07T18:14:36.947Z,16.80
2023-02-07T18:17:06.951Z,16.75
2023-02-07T18:19:36.879Z,15.77
2023-02-07T18:22:08.452Z,14.50
2023-02-07T18:24:39.887Z,15.63
2023-02-07T18:27:13.926Z,17.70
2023-02-07T18:29:45.355Z,14.80
2023-02-07T18:32:16.132Z,17.10
2023-02-07T18:34:46.662Z,14.73
2023-02-07T18:37:23.337Z,14.88
2023-02-07T18:39:55.985Z,14.23
2023-02-07T18:42:27.747Z,15.00
2023-02-07T18:44:59.325Z,13.25
2023-02-07T18:47:31.024Z,16.02
2023-02-07T18:50:02.925Z,15.43
2023-02-07T18:52:36.984Z,15.85
2023-02-07T18:55:08.963Z,15.48
2023-02-07T18:57:41.591Z,13.43
2023-02-07T19:00:14.643Z,15.98
2023-02-07T19:02:44.934Z,14.00
2023-02-07T19:05:18.111Z,13.82
2023-02-07T19:07:48.491Z,15.57
2023-02-07T19:10:19.331Z,16.02
2023-02-07T19:12:51.724Z,17.25
2023-02-07T19:15:27.227Z,14.68
2023-02-07T19:18:00.057Z,13.27
2023-02-07T19:20:36.434Z,16.83
2023-02-07T19:23:06.498Z,15.60
2023-02-07T19:25:37.104Z,14.93
2023-02-07T19:28:09.431Z,16.63
2023-02-07T19:30:42.526Z,15.57
2023-02-07T19:33:15.379Z,14.70
2023-02-07T19:35:46.745Z,17.83
2023-02-07T19:38:17.200Z,15.90
2023-02-07T19:40:49.608Z,18.00
2023-02-07T19:43:21.572Z,15.80
2023-02-07T19:45:52.797Z,16.75
2023-02-07T19:48:24.338Z,16.23
2023-02-07T19:51:04.930Z,15.77
2023-02-07T19:53:36.036Z,17.60
2023-02-07T19:56:13.036Z,16.52
2023-02-07T19:58:48.558Z,17.42
2023-02-07T20:01:25.773Z,17.30
2023-02-07T20:03:57.461Z,16.40
2023-02-07T20:06:38.584Z,16.10
2023-02-07T20:09:12.967Z,19.80
2023-02-07T20:11:46.661Z,15.85
2023-02-07T20:14:18.759Z,19.15
2023-02-07T20:16:49.505Z,22.45
2023-02-07T20:19:22.384Z,18.77
2023-02-07T20:21:53.367Z,20.90
2023-02-07T20:24:24.547Z,19.00
2023-02-07T20:26:55.532Z,21.00
2023-02-07T20:29:31.724Z,19.30
2023-02-07T20:32:03.820Z,22.60
2023-02-07T20:35:00.866Z,19.17
2023-02-07T20:37:34.913Z,21.00
2023-02-07T20:40:07.059Z,20.52
2023-02-07T20:42:38.078Z,21.70
2023-02-07T20:45:15.193Z,20.45
2023-02-07T20:47:46.782Z,18.15
2023-02-07T20:50:17.390Z,19.20
2023-02-07T20:52:49.335Z,21.58
2023-02-07T20:55:20.917Z,18.52
2023-02-07T20:57:51.028Z,17.55
2023-02-07T21:00:23.484Z,19.83
2023-02-07T21:02:54.539Z,17.33
2023-02-07T21:05:24.768Z,19.30
2023-02-07T21:07:56.453Z,18.80
2023-02-07T21:10:27.671Z,17.02
2023-02-07T21:12:59.226Z,17.02
2023-02-07T21:15:32.592Z,18.92
2023-02-07T21:18:03.253Z,18.23
2023-02-07T21:20:36.108Z,19.95
2023-02-07T21:23:11.462Z,18.35
2023-02-07T21:25:45.261Z,18.50
2023-02-07T21:28:15.984Z,20.80
2023-02-07T21:30:52.093Z,17.80
2023-02-07T21:33:36.194Z,19.17
2023-02-07T21:36:09.593Z,19.58
2023-02-07T21:38:57.146Z,21.98
2023-02-07T21:41:30.480Z,19.95
2023-02-07T21:44:08.839Z,20.80
2023-02-07T21:46:43.400Z,21.65
2023-02-07T21:49:27.382Z,19.75
2023-02-07T21:52:05.869Z,20.98
2023-02-07T21:54:36.962Z,21.50
2023-02-07T21:57:18.465Z,20.30
2023-02-07T21:59:54.867Z,22.15
2023-02-07T22:02:43.070Z,22.10
2023-02-07T22:05:29.698Z,22.75
2023-02-07T22:08:04.979Z,19.17
2023-02-07T22:10:48.590Z,21.15
2023-02-07T22:13:24.955Z,21.67
2023-02-07T22:15:58.373Z,24.40
2023-02-07T22:18:35.406Z,25.83
2023-02-07T22:21:09.563Z,25.50
2023-02-07T22:23:43.040Z,23.08
2023-02-07T22:26:22.924Z,25.98
2023-02-07T22:28:55.635Z,25.65
2023-02-07T22:31:36.213Z,24.95
2023-02-07T22:34:16.492Z,23.98
2023-02-07T22:36:52.889Z,24.23
2023-02-07T22:40:10.505Z,23.33
2023-02-07T22:42:52.516Z,24.23
2023-02-07T22:45:30.923Z,20.38
2023-02-07T22:48:06.369Z,24.02
2023-02-07T22:50:53.390Z,22.48
2023-02-07T22:53:29.051Z,26.15
2023-02-07T22:56:06.063Z,25.75
2023-02-07T22:58:43.835Z,26.48
2023-02-07T23:01:24.398Z,25.23
2023-02-07T23:04:05.884Z,23.15
2023-02-07T23:06:41.126Z,22.65
2023-02-07T23:09:20.874Z,25.40
2023-02-07T23:11:55.266Z,23.17
2023-02-07T23:14:35.410Z,22.98
2023-02-07T23:17:44.368Z,24.05
2023-02-07T23:20:21.456Z,24.23
2023-02-07T23:23:16.318Z,22.55
2023-02-07T23:25:55.498Z,24.60
2023-02-07T23:28:36.953Z,24.85
2023-02-07T23:31:18.512Z,24.95
2023-02-07T23:33:58.786Z,25.65
2023-02-07T23:36:35.179Z,26.38
2023-02-07T23:39:09.788Z,23.85
2023-02-07T23:41:43.021Z,26.35
2023-02-07T23:44:15.474Z,24.58
2023-02-07T23:46:52.172Z,23.60
2023-02-07T23:49:28.148Z,26.23
2023-02-07T23:52:06.733Z,27.13
2023-02-07T23:54:50.797Z,26.90
2023-02-07T23:57:32.982Z,28.85
